createdAt,value
2022-11-24T00:00:51.908Z,8.02
2022-11-24T00:01:51.963Z,7.95
2022-11-24T00:02:52.078Z,7.99
2022-11-24T00:03:51.862Z,7.92
2022-11-24T00:04:51.849Z,7.91
2022-11-24T00:05:51.830Z,7.92
2022-11-24T00:06:51.818Z,7.95
2022-11-24T00:07:51.874Z,7.96
2022-11-24T00:08:51.807Z,7.95
2022-11-24T00:09:51.769Z,7.96
2022-11-24T00:10:51.757Z,7.96
2022-11-24T00:11:51.740Z,7.92
2022-11-24T00:12:51.727Z,7.89
2022-11-24T00:13:51.710Z,7.76
2022-11-24T00:14:51.697Z,7.92
2022-11-24T00:15:51.678Z,7.91
2022-11-24T00:16:51.708Z,7.94
2022-11-24T00:17:51.648Z,7.96
2022-11-24T00:18:51.634Z,8.02
2022-11-24T00:19:51.622Z,7.95
2022-11-24T00:20:51.604Z,7.96
2022-11-24T00:21:51.593Z,8.02
2022-11-24T00:22:51.574Z,7.95
2022-11-24T00:23:51.563Z,7.99
2022-11-24T00:24:51.563Z,7.96
2022-11-24T00:25:51.531Z,8.00
2022-11-24T00:26:51.512Z,7.88
2022-11-24T00:27:51.500Z,8.10
2022-11-24T00:28:51.489Z,8.00
2022-11-24T00:29:51.473Z,8.12
2022-11-24T00:30:51.512Z,8.04
2022-11-24T00:31:51.442Z,7.96
2022-11-24T00:32:51.422Z,8.06
2022-11-24T00:33:51.414Z,8.20
2022-11-24T00:34:51.441Z,8.10
2022-11-24T00:35:51.380Z,8.21
2022-11-24T00:36:51.362Z,8.20
2022-11-24T00:37:51.367Z,8.17
2022-11-24T00:38:51.332Z,8.22
2022-11-24T00:39:51.321Z,8.18
2022-11-24T00:40:51.320Z,8.20
2022-11-24T00:41:51.289Z,8.17
2022-11-24T00:42:51.271Z,8.14
2022-11-24T00:43:51.259Z,8.27
2022-11-24T00:44:51.240Z,8.27
2022-11-24T00:45:51.339Z,8.25
2022-11-24T00:46:51.374Z,8.25
2022-11-24T00:47:51.199Z,8.29
2022-11-24T00:48:51.182Z,8.28
2022-11-24T00:49:51.172Z,8.27
2022-11-24T00:50:51.151Z,8.28
2022-11-24T00:51:51.140Z,8.20
2022-11-24T00:52:51.126Z,8.24
2022-11-24T00:53:51.110Z,8.25
2022-11-24T00:54:51.092Z,8.21
2022-11-24T00:55:51.086Z,8.21
2022-11-24T00:56:51.080Z,8.20
2022-11-24T00:57:51.050Z,8.22
2022-11-24T00:58:51.034Z,8.24
2022-11-24T00:59:51.123Z,8.21
2022-11-24T01:00:51.101Z,8.21
2022-11-24T01:01:51.041Z,8.27
2022-11-24T01:02:51.025Z,8.29
2022-11-24T01:03:50.960Z,8.31
2022-11-24T01:04:50.951Z,8.32
2022-11-24T01:05:50.931Z,8.29
2022-11-24T01:06:50.913Z,8.36
2022-11-24T01:07:50.992Z,8.31
2022-11-24T01:08:50.880Z,8.31
2022-11-24T01:09:51.084Z,8.34
2022-11-24T01:10:50.854Z,8.28
2022-11-24T01:11:50.839Z,8.28
2022-11-24T01:12:50.840Z,8.31
2022-11-24T01:13:50.811Z,8.20
2022-11-24T01:14:50.791Z,8.12
2022-11-24T01:15:50.823Z,8.24
2022-11-24T01:16:50.765Z,8.17
2022-11-24T01:17:50.748Z,8.22
2022-11-24T01:18:50.730Z,8.24
2022-11-24T01:19:50.719Z,8.18
2022-11-24T01:20:50.700Z,8.24
2022-11-24T01:21:50.693Z,8.25
2022-11-24T01:22:50.672Z,8.24
2022-11-24T01:23:50.658Z,8.17
2022-11-24T01:24:50.642Z,8.28
2022-11-24T01:25:50.628Z,8.39
2022-11-24T01:26:50.610Z,8.32
2022-11-24T01:27:50.799Z,8.37
2022-11-24T01:28:50.599Z,8.27
2022-11-24T01:29:50.596Z,8.37
2022-11-24T01:30:50.585Z,8.37
2022-11-24T01:31:50.538Z,8.31
2022-11-24T01:32:50.520Z,8.28
2022-11-24T01:33:50.507Z,8.34
2022-11-24T01:34:50.490Z,8.28
2022-11-24T01:35:50.477Z,8.27
2022-11-24T01:36:50.462Z,8.24
2022-11-24T01:37:50.447Z,8.17
2022-11-24T01:38:50.429Z,8.28
2022-11-24T01:39:50.418Z,8.28
2022-11-24T01:40:50.399Z,8.29
2022-11-24T01:41:50.386Z,8.22
2022-11-24T01:42:50.371Z,8.29
2022-11-24T01:43:50.358Z,8.27
2022-11-24T01:44:50.358Z,8.14
2022-11-24T01:45:50.371Z,8.20
2022-11-24T01:46:50.358Z,8.07
2022-11-24T01:47:50.296Z,8.14
2022-11-24T01:48:50.277Z,8.14
2022-11-24T01:49:50.266Z,8.04
2022-11-24T01:50:50.249Z,8.28
2022-11-24T01:51:50.236Z,8.18
2022-11-24T01:52:50.217Z,8.13
2022-11-24T01:54:50.190Z,8.18
2022-11-24T01:55:50.172Z,8.07
2022-11-24T01:56:50.159Z,8.07
2022-11-24T01:57:50.141Z,8.06
2022-11-24T01:58:50.130Z,8.07
2022-11-24T01:59:50.111Z,8.10
2022-11-24T02:00:50.117Z,7.95
2022-11-24T02:01:50.250Z,8.18
2022-11-24T02:02:50.295Z,8.20
2022-11-24T02:03:50.051Z,8.18
2022-11-24T02:04:50.040Z,8.14
2022-11-24T02:05:50.023Z,8.18
2022-11-24T02:06:50.010Z,8.09
2022-11-24T02:07:50.040Z,8.03
2022-11-24T02:08:49.977Z,8.10
2022-11-24T02:09:49.960Z,8.04
2022-11-24T02:10:49.948Z,8.09
2022-11-24T02:11:49.930Z,8.18
2022-11-24T02:12:49.922Z,8.20
2022-11-24T02:13:49.901Z,8.10
2022-11-24T02:14:49.887Z,8.14
2022-11-24T02:15:49.908Z,8.14
2022-11-24T02:16:49.875Z,8.21
2022-11-24T02:17:49.839Z,8.09
2022-11-24T02:18:49.828Z,8.06
2022-11-24T02:19:49.810Z,8.03
2022-11-24T02:20:49.796Z,8.00
2022-11-24T02:21:49.778Z,8.06
2022-11-24T02:22:49.765Z,8.07
2022-11-24T02:23:49.748Z,8.07
2022-11-24T02:24:49.742Z,8.06
2022-11-24T02:25:49.716Z,8.07
2022-11-24T02:26:49.706Z,8.07
2022-11-24T02:27:53.909Z,8.10
2022-11-24T02:28:49.674Z,8.21
2022-11-24T02:29:49.660Z,8.29
2022-11-24T02:30:49.717Z,8.29
2022-11-24T02:31:49.629Z,8.31
2022-11-24T02:32:49.638Z,8.34
2022-11-24T02:33:49.596Z,8.22
2022-11-24T02:34:49.585Z,8.36
2022-11-24T02:35:49.566Z,8.32
2022-11-24T02:36:49.553Z,8.31
2022-11-24T02:37:49.540Z,8.29
2022-11-24T02:38:49.524Z,8.28
2022-11-24T02:39:49.506Z,8.34
2022-11-24T02:40:49.492Z,8.43
2022-11-24T02:41:49.475Z,8.49
2022-11-24T02:42:49.464Z,8.45
2022-11-24T02:43:49.445Z,8.43
2022-11-24T02:44:49.434Z,8.45
2022-11-24T02:45:49.416Z,8.55
2022-11-24T02:46:49.402Z,8.45
2022-11-24T02:47:49.385Z,8.45
2022-11-24T02:48:49.495Z,8.54
2022-11-24T02:49:49.357Z,8.58
2022-11-24T02:50:49.342Z,8.46
2022-11-24T02:51:49.324Z,8.58
2022-11-24T02:52:49.313Z,8.60
2022-11-24T02:53:49.293Z,8.64
2022-11-24T02:54:49.284Z,8.54
2022-11-24T02:55:49.265Z,8.61
2022-11-24T02:56:49.251Z,8.58
2022-11-24T02:57:49.233Z,8.55
2022-11-24T02:58:49.322Z,8.52
2022-11-24T02:59:49.207Z,8.54
2022-11-24T03:00:49.193Z,8.55
2022-11-24T03:01:49.237Z,8.50
2022-11-24T03:02:49.216Z,8.57
2022-11-24T03:03:49.149Z,8.60
2022-11-24T03:04:49.152Z,8.60
2022-11-24T03:05:49.127Z,8.61
2022-11-24T03:06:49.104Z,8.57
2022-11-24T03:07:49.163Z,8.64
2022-11-24T03:08:49.071Z,8.70
2022-11-24T03:09:49.054Z,8.67
2022-11-24T03:10:49.042Z,8.61
2022-11-24T03:11:49.025Z,8.64
2022-11-24T03:12:49.011Z,8.67
2022-11-24T03:13:48.995Z,8.61
2022-11-24T03:14:48.982Z,8.58
2022-11-24T03:15:49.042Z,8.71
2022-11-24T03:16:48.952Z,8.61
2022-11-24T03:17:48.934Z,8.75
2022-11-24T03:18:48.923Z,8.57
2022-11-24T03:19:48.909Z,8.71
2022-11-24T03:20:48.913Z,8.75
2022-11-24T03:21:48.874Z,8.67
2022-11-24T03:22:48.864Z,8.70
2022-11-24T03:23:48.847Z,8.65
2022-11-24T03:24:48.833Z,8.75
2022-11-24T03:25:48.815Z,8.75
2022-11-24T03:26:48.803Z,8.70
2022-11-24T03:27:48.791Z,8.68
2022-11-24T03:28:48.775Z,8.78
2022-11-24T03:29:48.756Z,8.71
2022-11-24T03:30:48.866Z,8.65
2022-11-24T03:31:48.726Z,8.65
2022-11-24T03:32:48.714Z,8.70
2022-11-24T03:33:48.700Z,8.58
2022-11-24T03:34:48.685Z,8.57
2022-11-24T03:35:48.666Z,8.65
2022-11-24T03:36:48.674Z,8.64
2022-11-24T03:37:48.637Z,8.58
2022-11-24T03:38:48.624Z,8.65
2022-11-24T03:39:48.607Z,8.63
2022-11-24T03:40:48.595Z,8.57
2022-11-24T03:41:48.582Z,8.57
2022-11-24T03:42:48.564Z,8.47
2022-11-24T03:43:48.547Z,8.52
2022-11-24T03:44:48.535Z,8.52
2022-11-24T03:45:48.517Z,8.63
2022-11-24T03:46:48.613Z,8.52
2022-11-24T03:47:48.487Z,8.68
2022-11-24T03:48:48.479Z,8.58
2022-11-24T03:49:48.458Z,8.57
2022-11-24T03:50:48.446Z,8.47
2022-11-24T03:51:48.427Z,8.46
2022-11-24T03:52:48.435Z,8.42
2022-11-24T03:53:48.399Z,8.42
2022-11-24T03:54:48.387Z,8.45
2022-11-24T03:55:48.372Z,8.46
2022-11-24T03:56:48.357Z,8.36
2022-11-24T03:57:48.338Z,8.52
2022-11-24T03:58:48.326Z,8.49
2022-11-24T03:59:48.309Z,8.49
2022-11-24T04:00:48.296Z,8.57
2022-11-24T04:01:48.319Z,8.46
2022-11-24T04:02:48.385Z,8.50
2022-11-24T04:03:48.358Z,8.47
2022-11-24T04:04:49.796Z,8.46
2022-11-24T04:05:48.218Z,8.63
2022-11-24T04:06:48.206Z,8.61
2022-11-24T04:07:48.232Z,8.43
2022-11-24T04:08:48.194Z,8.45
2022-11-24T04:09:48.158Z,8.46
2022-11-24T04:10:48.147Z,8.43
2022-11-24T04:11:48.131Z,8.49
2022-11-24T04:12:48.117Z,8.50
2022-11-24T04:13:48.098Z,8.45
2022-11-24T04:14:48.089Z,8.64
2022-11-24T04:15:48.156Z,8.46
2022-11-24T04:16:48.057Z,8.37
2022-11-24T04:17:48.038Z,8.31
2022-11-24T04:18:48.026Z,8.39
2022-11-24T04:19:48.008Z,8.31
2022-11-24T04:20:47.995Z,8.27
2022-11-24T04:21:47.980Z,8.37
2022-11-24T04:22:47.971Z,8.31
2022-11-24T04:23:47.948Z,8.34
2022-11-24T04:24:47.956Z,8.42
2022-11-24T04:25:47.917Z,8.42
2022-11-24T04:26:47.906Z,8.40
2022-11-24T04:27:47.887Z,8.37
2022-11-24T04:28:47.877Z,8.43
2022-11-24T04:29:47.858Z,8.34
2022-11-24T04:30:47.845Z,8.43
2022-11-24T04:31:47.906Z,8.32
2022-11-24T04:32:47.815Z,8.34
2022-11-24T04:33:47.796Z,8.47
2022-11-24T04:34:47.789Z,8.47
2022-11-24T04:35:47.771Z,8.40
2022-11-24T04:36:47.753Z,8.37
2022-11-24T04:37:47.742Z,8.28
2022-11-24T04:39:22.783Z,8.28
2022-11-24T04:39:47.714Z,8.32
2022-11-24T04:41:47.699Z,8.42
2022-11-24T04:42:47.666Z,8.43
2022-11-24T04:43:47.648Z,8.43
2022-11-24T04:44:47.644Z,8.43
2022-11-24T04:45:47.616Z,8.54
2022-11-24T04:46:47.697Z,8.54
2022-11-24T04:47:47.587Z,8.58
2022-11-24T04:48:47.575Z,8.61
2022-11-24T04:49:47.560Z,8.55
2022-11-24T04:50:47.546Z,8.50
2022-11-24T04:51:47.539Z,8.63
2022-11-24T04:52:47.516Z,8.54
2022-11-24T04:53:47.498Z,8.55
2022-11-24T04:54:47.485Z,8.55
2022-11-24T04:55:47.468Z,8.50
2022-11-24T04:56:47.456Z,8.49
2022-11-24T04:57:47.456Z,8.64
2022-11-24T04:58:47.427Z,8.67
2022-11-24T04:59:47.409Z,8.67
2022-11-24T05:00:47.445Z,8.73
2022-11-24T05:01:47.463Z,8.65
2022-11-24T05:02:47.367Z,8.70
2022-11-24T05:03:47.405Z,8.60
2022-11-24T05:04:47.429Z,8.60
2022-11-24T05:05:47.318Z,8.64
2022-11-24T05:06:47.309Z,8.64
2022-11-24T05:07:47.331Z,8.82
2022-11-24T05:08:47.277Z,8.76
2022-11-24T05:09:58.813Z,8.85
2022-11-24T05:10:47.247Z,8.78
2022-11-24T05:11:47.432Z,8.93
2022-11-24T05:12:51.294Z,8.83
2022-11-24T05:13:47.220Z,8.82
2022-11-24T05:14:47.189Z,8.80
2022-11-24T05:15:47.226Z,8.93
2022-11-24T05:16:47.159Z,8.83
2022-11-24T05:17:47.140Z,8.94
2022-11-24T05:18:47.128Z,8.88
2022-11-24T05:19:47.118Z,8.91
2022-11-24T05:20:47.100Z,8.98
2022-11-24T05:21:47.084Z,8.85
2022-11-24T05:22:47.069Z,8.89
2022-11-24T05:23:47.052Z,8.76
2022-11-24T05:24:47.041Z,8.68
2022-11-24T05:25:47.935Z,8.68
2022-11-24T05:26:47.011Z,8.70
2022-11-24T05:27:46.992Z,8.68
2022-11-24T05:28:46.980Z,8.65
2022-11-24T05:29:46.982Z,8.71
2022-11-24T05:30:46.951Z,8.78
2022-11-24T05:31:47.053Z,8.65
2022-11-24T05:32:46.922Z,8.64
2022-11-24T05:33:46.902Z,8.68
2022-11-24T05:34:46.891Z,8.52
2022-11-24T05:35:46.880Z,8.50
2022-11-24T05:36:46.860Z,8.52
2022-11-24T05:37:46.845Z,8.45
2022-11-24T05:38:46.831Z,8.45
2022-11-24T05:39:46.827Z,8.39
2022-11-24T05:40:46.800Z,8.42
2022-11-24T05:41:46.783Z,8.40
2022-11-24T05:42:48.275Z,8.46
2022-11-24T05:43:46.759Z,8.45
2022-11-24T05:45:46.748Z,8.43
2022-11-24T05:46:46.732Z,8.42
2022-11-24T05:47:46.697Z,8.50
2022-11-24T05:48:46.678Z,8.57
2022-11-24T05:49:46.667Z,8.55
2022-11-24T05:50:46.651Z,8.46
2022-11-24T05:51:46.637Z,8.49
2022-11-24T05:52:46.619Z,8.36
2022-11-24T05:53:46.608Z,8.37
2022-11-24T05:54:46.590Z,8.49
2022-11-24T05:55:46.577Z,8.49
2022-11-24T05:56:46.560Z,8.54
2022-11-24T05:57:46.549Z,8.52
2022-11-24T05:58:46.529Z,8.52
2022-11-24T05:59:46.520Z,8.47
2022-11-24T06:00:46.497Z,8.52
2022-11-24T06:01:46.716Z,8.50
2022-11-24T06:02:46.604Z,8.49
2022-11-24T06:03:46.459Z,8.49
2022-11-24T06:04:46.440Z,8.55
2022-11-24T06:05:46.428Z,8.49
2022-11-24T06:06:46.413Z,8.55
2022-11-24T06:07:46.491Z,8.70
2022-11-24T06:08:46.480Z,8.71
2022-11-24T06:09:46.368Z,8.71
2022-11-24T06:10:46.352Z,8.61
2022-11-24T06:11:46.340Z,8.61
2022-11-24T06:12:46.325Z,8.50
2022-11-24T06:13:46.408Z,8.52
2022-11-24T06:14:46.299Z,8.52
2022-11-24T06:15:46.279Z,8.49
2022-11-24T06:16:46.326Z,8.50
2022-11-24T06:17:46.271Z,8.43
2022-11-24T06:18:46.230Z,8.45
2022-11-24T06:19:46.219Z,8.43
2022-11-24T06:21:09.148Z,8.42
2022-11-24T06:21:46.191Z,8.37
2022-11-24T06:22:46.170Z,8.42
2022-11-24T06:23:46.160Z,8.67
2022-11-24T06:25:51.299Z,8.55
2022-11-24T06:26:46.116Z,8.64
2022-11-24T06:27:46.098Z,8.63
2022-11-24T06:28:46.092Z,8.54
2022-11-24T06:29:46.067Z,8.85
2022-11-24T06:30:46.056Z,8.91
2022-11-24T06:31:46.130Z,8.85
2022-11-24T06:32:49.416Z,8.79
2022-11-24T06:33:46.035Z,8.94
2022-11-24T06:34:45.998Z,8.91
2022-11-24T06:35:45.978Z,8.91
2022-11-24T06:36:45.965Z,8.97
2022-11-24T06:37:45.954Z,8.96
2022-11-24T06:38:45.935Z,8.94
2022-11-24T06:39:45.918Z,8.93
2022-11-24T06:40:45.906Z,8.93
2022-11-24T06:41:45.888Z,8.91
2022-11-24T06:42:45.877Z,9.00
2022-11-24T06:43:45.860Z,8.83
2022-11-24T06:44:45.846Z,9.13
2022-11-24T06:45:45.901Z,9.23
2022-11-24T06:46:45.817Z,9.13
2022-11-24T06:47:45.799Z,9.19
2022-11-24T06:48:45.786Z,9.17
2022-11-24T06:49:45.793Z,9.19
2022-11-24T06:50:45.762Z,9.24
2022-11-24T06:51:45.743Z,9.16
2022-11-24T06:52:45.728Z,9.22
2022-11-24T06:53:45.710Z,9.22
2022-11-24T06:54:45.699Z,9.20
2022-11-24T06:55:45.681Z,9.23
2022-11-24T06:56:45.669Z,9.20
2022-11-24T06:57:45.651Z,9.24
2022-11-24T06:58:45.782Z,9.17
2022-11-24T06:59:45.622Z,9.16
2022-11-24T07:00:45.662Z,9.17
2022-11-24T07:01:45.590Z,9.19
2022-11-24T07:02:46.244Z,9.19
2022-11-24T07:03:45.573Z,9.23
2022-11-24T07:04:45.551Z,9.17
2022-11-24T07:05:45.556Z,9.30
2022-11-24T07:06:45.522Z,9.34
2022-11-24T07:07:45.553Z,9.31
2022-11-24T07:08:45.493Z,9.22
2022-11-24T07:09:45.474Z,9.41
2022-11-24T07:10:45.495Z,9.38
2022-11-24T07:11:45.446Z,9.32
2022-11-24T07:12:45.435Z,9.26
2022-11-24T07:13:45.415Z,9.38
2022-11-24T07:14:45.404Z,9.44
2022-11-24T07:15:45.390Z,9.45
2022-11-24T07:16:45.524Z,9.40
2022-11-24T07:17:45.357Z,9.35
2022-11-24T07:18:45.344Z,9.40
2022-11-24T07:19:45.327Z,9.52
2022-11-24T07:20:45.316Z,9.40
2022-11-24T07:21:45.322Z,9.48
2022-11-24T07:22:45.286Z,9.38
2022-11-24T07:23:45.281Z,9.48
2022-11-24T07:24:45.256Z,9.41
2022-11-24T07:25:45.251Z,9.31
2022-11-24T07:26:45.229Z,9.31
2022-11-24T07:27:45.209Z,9.32
2022-11-24T07:28:45.204Z,9.34
2022-11-24T07:29:45.180Z,9.26
2022-11-24T07:30:45.168Z,9.40
2022-11-24T07:31:45.177Z,9.31
2022-11-24T07:32:45.141Z,9.59
2022-11-24T07:33:45.121Z,9.48
2022-11-24T07:34:45.109Z,9.42
2022-11-24T07:35:45.095Z,9.56
2022-11-24T07:36:45.138Z,9.56
2022-11-24T07:37:45.080Z,9.56
2022-11-24T07:38:45.049Z,9.67
2022-11-24T07:39:45.033Z,9.67
2022-11-24T07:40:45.021Z,9.81
2022-11-24T07:42:44.989Z,9.95
2022-11-24T07:43:44.977Z,9.95
2022-11-24T07:44:44.959Z,9.99
2022-11-24T07:45:45.011Z,10.13
2022-11-24T07:46:44.930Z,10.17
2022-11-24T07:47:44.919Z,10.14
2022-11-24T07:48:44.905Z,10.14
2022-11-24T07:49:44.889Z,10.16
2022-11-24T07:50:44.872Z,10.04
2022-11-24T07:51:44.862Z,10.04
2022-11-24T07:52:44.844Z,10.22
2022-11-24T07:53:44.862Z,10.10
2022-11-24T07:54:44.816Z,10.13
2022-11-24T07:55:44.804Z,10.06
2022-11-24T07:56:44.785Z,10.10
2022-11-24T07:57:44.775Z,10.16
2022-11-24T07:58:49.758Z,10.16
2022-11-24T08:00:44.731Z,10.09
2022-11-24T08:01:44.800Z,10.07
2022-11-24T08:02:44.704Z,10.13
2022-11-24T08:03:44.777Z,10.16
2022-11-24T08:04:44.674Z,10.04
2022-11-24T08:06:16.003Z,10.02
2022-11-24T08:06:47.302Z,10.06
2022-11-24T08:07:44.686Z,9.98
2022-11-24T08:08:44.623Z,9.98
2022-11-24T08:09:44.626Z,9.98
2022-11-24T08:10:44.590Z,10.10
2022-11-24T08:11:44.572Z,10.13
2022-11-24T08:12:44.560Z,10.10
2022-11-24T08:13:44.540Z,9.98
2022-11-24T08:14:44.532Z,9.98
2022-11-24T08:15:44.514Z,10.02
2022-11-24T08:16:44.566Z,10.04
2022-11-24T08:17:44.485Z,10.25
2022-11-24T08:18:44.474Z,10.10
2022-11-24T08:19:44.455Z,10.20
2022-11-24T08:20:44.445Z,10.11
2022-11-24T08:21:44.427Z,10.06
2022-11-24T08:22:44.416Z,9.98
2022-11-24T08:23:44.404Z,9.95
2022-11-24T08:24:44.386Z,10.02
2022-11-24T08:25:44.398Z,9.96
2022-11-24T08:26:44.358Z,10.09
2022-11-24T08:27:44.355Z,9.95
2022-11-24T08:28:44.334Z,9.93
2022-11-24T08:29:44.315Z,9.93
2022-11-24T08:30:44.301Z,9.95
2022-11-24T08:31:44.338Z,9.92
2022-11-24T08:32:44.270Z,9.85
2022-11-24T08:33:44.257Z,9.89
2022-11-24T08:34:44.243Z,9.78
2022-11-24T08:35:44.226Z,9.88
2022-11-24T08:36:44.222Z,9.89
2022-11-24T08:37:44.200Z,9.92
2022-11-24T08:38:44.186Z,9.78
2022-11-24T08:39:44.170Z,9.88
2022-11-24T08:40:44.159Z,9.91
2022-11-24T08:41:44.174Z,9.85
2022-11-24T08:42:44.137Z,9.75
2022-11-24T08:43:44.118Z,9.98
2022-11-24T08:44:44.102Z,9.96
2022-11-24T08:45:44.127Z,9.88
2022-11-24T08:46:44.130Z,9.88
2022-11-24T08:47:44.059Z,9.88
2022-11-24T08:48:44.062Z,9.83
2022-11-24T08:49:44.028Z,9.85
2022-11-24T08:50:44.031Z,9.81
2022-11-24T08:51:43.998Z,9.83
2022-11-24T08:52:43.985Z,9.86
2022-11-24T08:53:43.973Z,9.92
2022-11-24T08:54:43.958Z,9.74
2022-11-24T08:55:43.944Z,9.81
2022-11-24T08:56:43.928Z,9.77
2022-11-24T08:57:43.936Z,9.95
2022-11-24T08:58:43.961Z,9.81
2022-11-24T08:59:43.892Z,9.85
2022-11-24T09:00:43.875Z,9.85
2022-11-24T09:01:43.943Z,9.96
2022-11-24T09:02:43.839Z,9.98
2022-11-24T09:03:50.109Z,10.01
2022-11-24T09:04:43.852Z,9.99
2022-11-24T09:05:51.597Z,9.96
2022-11-24T09:06:43.784Z,10.06
2022-11-24T09:07:43.832Z,10.06
2022-11-24T09:08:43.754Z,10.02
2022-11-24T09:09:43.745Z,10.04
2022-11-24T09:10:43.729Z,10.16
2022-11-24T09:11:43.718Z,10.16
2022-11-24T09:12:43.700Z,10.22
2022-11-24T09:13:43.711Z,10.17
2022-11-24T09:14:43.678Z,10.20
2022-11-24T09:15:43.660Z,10.31
2022-11-24T09:16:43.723Z,10.26
2022-11-24T09:17:43.633Z,10.38
2022-11-24T09:18:43.621Z,10.38
2022-11-24T09:19:43.604Z,10.57
2022-11-24T09:20:43.587Z,10.49
2022-11-24T09:21:43.575Z,10.55
2022-11-24T09:22:43.565Z,10.63
2022-11-24T09:23:43.564Z,10.70
2022-11-24T09:24:43.530Z,10.70
2022-11-24T09:25:43.520Z,10.80
2022-11-24T09:26:47.678Z,10.83
2022-11-24T09:27:43.495Z,10.88
2022-11-24T09:28:43.479Z,10.80
2022-11-24T09:29:43.491Z,10.87
2022-11-24T09:30:43.531Z,10.88
2022-11-24T09:31:43.439Z,10.78
2022-11-24T09:32:43.421Z,10.90
2022-11-24T09:33:43.511Z,10.93
2022-11-24T09:34:43.394Z,11.01
2022-11-24T09:35:43.383Z,10.98
2022-11-24T09:36:43.367Z,11.03
2022-11-24T09:37:43.356Z,11.23
2022-11-24T09:38:43.339Z,11.21
2022-11-24T09:39:43.330Z,11.21
2022-11-24T09:40:43.320Z,11.35
2022-11-24T09:41:43.302Z,11.38
2022-11-24T09:42:43.286Z,11.38
2022-11-24T09:43:43.280Z,11.36
2022-11-24T09:44:43.259Z,11.39
2022-11-24T09:46:04.585Z,11.38
2022-11-24T09:46:43.333Z,11.36
2022-11-24T09:47:43.222Z,11.41
2022-11-24T09:48:43.206Z,11.39
2022-11-24T09:49:46.148Z,11.45
2022-11-24T09:50:43.181Z,11.49
2022-11-24T09:51:43.170Z,11.49
2022-11-24T09:52:43.163Z,11.51
2022-11-24T09:53:43.143Z,11.48
2022-11-24T09:54:43.129Z,11.44
2022-11-24T09:55:43.117Z,11.57
2022-11-24T09:56:43.100Z,11.54
2022-11-24T09:57:43.092Z,11.60
2022-11-24T09:58:43.075Z,11.67
2022-11-24T09:59:43.064Z,11.81
2022-11-24T10:00:43.048Z,11.75
2022-11-24T10:01:43.179Z,11.82
2022-11-24T10:02:43.023Z,11.78
2022-11-24T10:03:43.013Z,11.90
2022-11-24T10:04:43.040Z,11.85
2022-11-24T10:05:42.987Z,11.90
2022-11-24T10:06:42.969Z,11.87
2022-11-24T10:07:43.022Z,11.94
2022-11-24T10:08:42.943Z,12.01
2022-11-24T10:09:42.933Z,12.08
2022-11-24T10:10:42.919Z,12.05
2022-11-24T10:11:42.911Z,12.03
2022-11-24T10:12:42.891Z,12.11
2022-11-24T10:13:42.887Z,11.98
2022-11-24T10:14:42.867Z,11.97
2022-11-24T10:15:42.943Z,11.88
2022-11-24T10:16:42.841Z,12.03
2022-11-24T10:17:42.852Z,11.98
2022-11-24T10:18:42.817Z,12.03
2022-11-24T10:19:43.300Z,11.98
2022-11-24T10:20:42.792Z,12.07
2022-11-24T10:21:42.780Z,12.22
2022-11-24T10:22:42.765Z,12.16
2022-11-24T10:24:42.760Z,12.23
2022-11-24T10:25:42.730Z,12.29
2022-11-24T10:26:42.718Z,12.21
2022-11-24T10:27:42.703Z,12.26
2022-11-24T10:28:42.691Z,12.22
2022-11-24T10:29:42.684Z,12.22
2022-11-24T10:30:42.750Z,12.21
2022-11-24T10:31:42.655Z,12.21
2022-11-24T10:32:42.641Z,12.23
2022-11-24T10:33:42.649Z,12.16
2022-11-24T10:34:42.618Z,12.08
2022-11-24T10:35:42.612Z,12.15
2022-11-24T10:36:42.591Z,12.04
2022-11-24T10:38:42.569Z,11.98
2022-11-24T10:39:42.557Z,12.01
2022-11-24T10:40:57.095Z,11.97
2022-11-24T10:41:42.529Z,12.03
2022-11-24T10:42:42.522Z,11.87
2022-11-24T10:43:42.512Z,11.82
2022-11-24T10:44:42.498Z,11.85
2022-11-24T10:45:42.494Z,11.87
2022-11-24T10:46:42.536Z,11.82
2022-11-24T10:47:42.455Z,11.79
2022-11-24T10:48:42.437Z,11.79
2022-11-24T10:49:42.450Z,11.69
2022-11-24T10:50:42.412Z,11.69
2022-11-24T10:51:42.403Z,11.82
2022-11-24T10:52:42.387Z,11.79
2022-11-24T10:54:42.365Z,11.82
2022-11-24T10:55:42.349Z,11.87
2022-11-24T10:56:42.340Z,11.84
2022-11-24T10:57:42.322Z,11.77
2022-11-24T10:58:42.314Z,11.81
2022-11-24T10:59:42.298Z,11.74
2022-11-24T11:00:42.287Z,11.81
2022-11-24T11:01:42.327Z,11.79
2022-11-24T11:02:42.350Z,11.88
2022-11-24T11:03:42.248Z,11.90
2022-11-24T11:04:42.290Z,11.84
2022-11-24T11:05:42.574Z,11.90
2022-11-24T11:06:42.215Z,12.00
2022-11-24T11:07:42.308Z,12.04
2022-11-24T11:08:42.187Z,12.07
2022-11-24T11:09:42.171Z,12.04
2022-11-24T11:10:42.166Z,12.07
2022-11-24T11:11:42.153Z,12.12
2022-11-24T11:12:44.243Z,12.15
2022-11-24T11:13:42.121Z,12.18
2022-11-24T11:14:42.113Z,12.18
2022-11-24T11:15:42.165Z,12.19
2022-11-24T11:16:42.288Z,12.23
2022-11-24T11:17:42.072Z,12.26
2022-11-24T11:18:42.062Z,12.19
2022-11-24T11:19:54.335Z,12.25
2022-11-24T11:20:42.059Z,12.30
2022-11-24T11:21:42.109Z,12.40
2022-11-24T11:22:42.013Z,12.41
2022-11-24T11:23:41.997Z,12.46
2022-11-24T11:24:41.987Z,12.43
2022-11-24T11:25:41.972Z,12.36
2022-11-24T11:26:41.963Z,12.33
2022-11-24T11:27:41.950Z,12.36
2022-11-24T11:28:41.938Z,12.41
2022-11-24T11:31:42.071Z,12.33
2022-11-24T11:34:41.994Z,12.33
2022-11-24T11:35:41.855Z,12.18
2022-11-24T11:36:41.838Z,12.21
2022-11-24T11:37:41.846Z,12.25
2022-11-24T11:38:41.820Z,12.31
2022-11-24T11:39:48.253Z,12.33
2022-11-24T11:40:41.791Z,12.36
2022-11-24T11:41:41.775Z,12.26
2022-11-24T11:43:41.752Z,12.40
2022-11-24T11:44:41.741Z,12.36
2022-11-24T11:45:41.860Z,12.37
2022-11-24T11:46:41.789Z,12.37
2022-11-24T11:47:41.701Z,12.41
2022-11-24T11:48:43.854Z,12.41
2022-11-24T11:49:41.676Z,12.48
2022-11-24T11:51:06.532Z,12.46
2022-11-24T11:51:41.743Z,12.52
2022-11-24T11:52:41.644Z,12.51
2022-11-24T11:53:41.668Z,12.55
2022-11-24T11:54:41.618Z,12.58
2022-11-24T11:55:46.640Z,12.66
2022-11-24T11:56:41.594Z,12.76
2022-11-24T11:57:41.578Z,12.92
2022-11-24T11:58:41.571Z,12.88
2022-11-24T11:59:41.555Z,12.87
2022-11-24T12:00:41.547Z,12.92
2022-11-24T12:01:41.532Z,12.96
2022-11-24T12:02:41.622Z,12.98
2022-11-24T12:03:41.624Z,13.01
2022-11-24T12:05:41.485Z,12.95
2022-11-24T12:06:41.470Z,13.01
2022-11-24T12:07:41.627Z,12.94
2022-11-24T12:09:11.541Z,12.92
2022-11-24T12:09:41.579Z,12.96
2022-11-24T12:11:41.415Z,12.99
2022-11-24T12:12:41.410Z,12.98
2022-11-24T12:13:41.388Z,12.91
2022-11-24T12:14:41.383Z,12.88
2022-11-24T12:15:41.386Z,12.85
2022-11-24T12:16:41.359Z,12.94
2022-11-24T12:17:41.342Z,12.88
2022-11-24T12:18:57.005Z,12.95
2022-11-24T12:19:41.320Z,12.85
2022-11-24T12:20:41.308Z,12.87
2022-11-24T12:21:41.497Z,12.88
2022-11-24T12:22:41.286Z,12.94
2022-11-24T12:23:41.270Z,12.88
2022-11-24T12:24:41.369Z,12.85
2022-11-24T12:25:41.313Z,12.96
2022-11-24T12:26:41.238Z,12.92
2022-11-24T12:27:41.224Z,12.96
2022-11-24T12:28:41.218Z,12.94
2022-11-24T12:29:41.206Z,12.98
2022-11-24T12:31:41.223Z,13.04
2022-11-24T12:33:43.977Z,13.14
2022-11-24T12:34:41.145Z,13.27
2022-11-24T12:35:41.232Z,13.28
2022-11-24T12:36:41.123Z,13.21
2022-11-24T12:37:41.107Z,13.13
2022-11-24T12:38:41.353Z,13.19
2022-11-24T12:39:41.084Z,13.22
2022-11-24T12:40:46.611Z,13.22
2022-11-24T12:41:42.450Z,13.27
2022-11-24T12:42:41.049Z,13.27
2022-11-24T12:43:41.037Z,13.32
2022-11-24T12:45:14.284Z,13.35
2022-11-24T12:45:41.015Z,13.48
2022-11-24T12:46:41.084Z,13.53
2022-11-24T12:47:40.994Z,13.48
2022-11-24T12:48:40.980Z,13.54
2022-11-24T12:49:41.171Z,13.43
2022-11-24T12:50:40.954Z,13.53
2022-11-24T12:51:40.964Z,13.53
2022-11-24T12:53:41.326Z,13.44
2022-11-24T12:54:40.911Z,13.53
2022-11-24T12:55:40.898Z,13.41
2022-11-24T12:57:40.898Z,13.51
2022-11-24T12:58:41.065Z,13.44
2022-11-24T13:00:14.069Z,13.38
2022-11-24T13:00:40.842Z,13.41
2022-11-24T13:01:41.033Z,13.44
2022-11-24T13:02:41.080Z,13.38
2022-11-24T13:03:40.807Z,13.48
2022-11-24T13:04:40.807Z,13.59
2022-11-24T13:05:40.986Z,13.62
2022-11-24T13:06:45.809Z,13.66
2022-11-24T13:07:40.797Z,13.59
2022-11-24T13:08:40.756Z,13.71
2022-11-24T13:09:40.937Z,13.84
2022-11-24T13:10:55.370Z,13.98
2022-11-24T13:18:54.655Z,14.17
2022-11-24T13:19:54.619Z,14.13
2022-11-24T13:20:54.606Z,14.11
2022-11-24T13:21:54.598Z,14.21
2022-11-24T13:23:54.577Z,14.17
2022-11-24T13:24:54.573Z,14.24
2022-11-24T13:25:54.553Z,14.13
2022-11-24T13:27:54.531Z,14.19
2022-11-24T13:29:03.568Z,14.13
2022-11-24T13:30:54.579Z,14.23
2022-11-24T13:31:54.538Z,14.30
2022-11-24T13:32:54.502Z,14.09
2022-11-24T13:33:54.460Z,14.23
2022-11-24T13:34:54.453Z,14.20
2022-11-24T13:35:54.440Z,14.17
2022-11-24T13:36:54.438Z,14.17
2022-11-24T13:37:54.416Z,14.01
2022-11-24T13:38:54.414Z,14.08
2022-11-24T13:41:21.017Z,13.94